createdAt,value
2023-05-23T06:09:19.879Z,22.89
2023-05-23T06:11:47.161Z,23.95
2023-05-23T06:14:14.286Z,24.40
2023-05-23T06:16:44.573Z,24.82
2023-05-23T06:19:11.638Z,24.81
2023-05-23T06:21:39.925Z,25.10
2023-05-23T06:24:09.101Z,24.89
2023-05-23T06:26:37.569Z,24.97
2023-05-23T06:29:04.258Z,25.04
2023-05-23T06:31:31.059Z,24.94
2023-05-23T06:33:57.929Z,24.99
2023-05-23T06:36:24.535Z,24.65
2023-05-23T06:38:51.140Z,24.93
2023-05-23T06:41:17.764Z,24.81
2023-05-23T06:43:44.349Z,25.03
2023-05-23T06:46:31.606Z,24.93
2023-05-23T06:49:13.281Z,25.13
2023-05-23T06:51:41.815Z,25.28
2023-05-23T06:54:08.644Z,25.24
2023-05-23T06:56:35.822Z,25.19
2023-05-23T06:59:03.851Z,25.36
2023-05-23T07:01:30.971Z,25.21
2023-05-23T07:03:57.590Z,25.09
2023-05-23T07:06:24.510Z,25.09
2023-05-23T07:08:51.283Z,25.28
2023-05-23T07:11:17.941Z,25.47
2023-05-23T07:13:50.299Z,25.53
2023-05-23T07:16:22.696Z,25.10
2023-05-23T07:19:01.792Z,25.39
2023-05-23T07:21:28.878Z,25.43
2023-05-23T07:23:55.986Z,25.37
2023-05-23T07:26:22.980Z,25.39
2023-05-23T07:28:53.933Z,25.23
2023-05-23T07:31:20.541Z,25.32
2023-05-23T07:33:47.183Z,25.37
2023-05-23T07:36:22.301Z,25.30
2023-05-23T07:38:49.250Z,25.38
2023-05-23T07:41:15.977Z,25.68
2023-05-23T07:43:42.726Z,25.78
2023-05-23T07:46:09.509Z,25.26
2023-05-23T07:48:37.534Z,24.85
2023-05-23T07:51:04.337Z,25.22
2023-05-23T07:53:31.195Z,24.78
2023-05-23T07:55:58.357Z,25.20
2023-05-23T07:58:28.030Z,25.21
2023-05-23T08:00:54.660Z,25.19
2023-05-23T08:03:40.076Z,25.16
2023-05-23T08:06:14.211Z,25.40
2023-05-23T08:08:41.193Z,25.33
2023-05-23T08:11:08.475Z,25.60
2023-05-23T08:13:40.957Z,25.27
2023-05-23T08:16:28.012Z,25.04
2023-05-23T08:18:54.927Z,24.96
2023-05-23T08:21:21.591Z,25.07
2023-05-23T08:23:48.514Z,25.01
2023-05-23T08:26:15.482Z,24.83
2023-05-23T08:28:42.133Z,25.10
2023-05-23T08:31:08.717Z,25.27
2023-05-23T08:33:35.458Z,25.47
2023-05-23T08:36:02.056Z,25.19
2023-05-23T08:38:29.078Z,25.39
2023-05-23T08:41:31.356Z,25.44
2023-05-23T08:44:05.194Z,25.32
2023-05-23T08:46:49.878Z,25.21
2023-05-23T08:49:28.205Z,25.02
2023-05-23T08:52:01.466Z,25.25
2023-05-23T08:54:29.508Z,25.26
2023-05-23T08:56:56.162Z,25.26
2023-05-23T08:59:23.694Z,25.56
2023-05-23T09:01:52.129Z,25.00
2023-05-23T09:04:18.879Z,25.30
2023-05-23T09:06:59.806Z,25.36
2023-05-23T09:09:26.463Z,25.48
2023-05-23T09:11:55.349Z,25.48
2023-05-23T09:14:22.531Z,25.65
2023-05-23T09:16:51.571Z,25.87
2023-05-23T09:19:22.230Z,25.90
2023-05-23T09:21:55.499Z,25.98
2023-05-23T09:24:34.923Z,25.58
2023-05-23T09:27:03.005Z,25.81
2023-05-23T09:29:30.720Z,25.53
2023-05-23T09:32:11.074Z,25.55
2023-05-23T09:34:59.193Z,25.70
2023-05-23T09:37:34.710Z,25.86
2023-05-23T09:40:07.157Z,25.87
2023-05-23T09:42:34.341Z,25.77
2023-05-23T09:45:04.009Z,25.63
2023-05-23T09:47:31.816Z,25.62
2023-05-23T09:49:58.759Z,25.48
2023-05-23T09:52:26.312Z,25.37
2023-05-23T09:54:53.934Z,25.26
2023-05-23T09:57:22.972Z,25.31
2023-05-23T09:59:54.433Z,25.39
2023-05-23T10:02:53.888Z,25.29
2023-05-23T10:05:50.218Z,25.29
2023-05-23T10:08:31.214Z,25.24
2023-05-23T10:10:57.713Z,25.51
2023-05-23T10:13:28.832Z,25.41
2023-05-23T10:16:07.029Z,25.28
2023-05-23T10:18:42.335Z,25.42
2023-05-23T10:21:15.576Z,25.34
2023-05-23T10:23:42.640Z,25.37
2023-05-23T10:26:10.561Z,25.19
2023-05-23T10:28:37.540Z,25.28
2023-05-23T10:31:04.322Z,25.17
2023-05-23T10:33:40.723Z,25.13
2023-05-23T10:36:17.769Z,25.15
2023-05-23T10:38:51.270Z,24.96
2023-05-23T10:41:36.744Z,24.83
2023-05-23T10:44:20.406Z,24.94
2023-05-23T10:47:04.517Z,25.00
2023-05-23T10:49:37.884Z,25.16
2023-05-23T10:52:05.049Z,25.19
2023-05-23T10:54:56.134Z,25.36
2023-05-23T10:57:29.505Z,25.43
2023-05-23T10:59:56.494Z,25.32
2023-05-23T11:02:28.047Z,25.62
2023-05-23T11:05:22.191Z,25.95
2023-05-23T11:08:14.509Z,25.98
2023-05-23T11:10:56.055Z,26.10
2023-05-23T11:13:23.451Z,26.02
2023-05-23T11:15:50.698Z,26.35
2023-05-23T11:18:24.694Z,26.64
2023-05-23T11:20:54.391Z,26.43
2023-05-23T11:23:22.058Z,26.69
2023-05-23T11:25:50.786Z,26.86
2023-05-23T11:28:18.091Z,27.03
2023-05-23T11:30:48.105Z,26.85
2023-05-23T11:33:16.386Z,27.23
2023-05-23T11:35:48.161Z,26.69
2023-05-23T11:38:16.645Z,26.83
2023-05-23T11:40:46.244Z,26.95
2023-05-23T11:43:17.814Z,27.32
2023-05-23T11:45:46.866Z,27.85
2023-05-23T11:48:16.621Z,27.98
2023-05-23T11:50:54.106Z,27.74
2023-05-23T11:53:25.065Z,28.16
2023-05-23T11:55:58.425Z,28.14
2023-05-23T11:58:36.043Z,27.60
2023-05-23T12:01:13.509Z,27.89
2023-05-23T12:03:47.746Z,28.09
2023-05-23T12:06:21.804Z,28.45
2023-05-23T12:08:48.391Z,28.27
2023-05-23T12:11:15.218Z,28.43
2023-05-23T12:13:42.345Z,28.40
2023-05-23T12:16:09.274Z,28.31
2023-05-23T12:18:37.887Z,28.30
2023-05-23T12:21:07.950Z,28.45
2023-05-23T12:23:35.765Z,28.59
2023-05-23T12:26:06.959Z,28.61
2023-05-23T12:28:45.128Z,28.21
2023-05-23T12:31:33.316Z,28.23
2023-05-23T12:33:59.915Z,28.66
2023-05-23T12:36:29.009Z,28.74
2023-05-23T12:39:02.885Z,28.77
2023-05-23T12:41:29.882Z,27.99
2023-05-23T12:43:56.974Z,27.99
2023-05-23T12:46:25.400Z,27.99
2023-05-23T12:48:53.125Z,27.85
2023-05-23T12:51:20.980Z,27.60
2023-05-23T12:53:48.362Z,27.58
2023-05-23T12:56:14.965Z,27.12
2023-05-23T12:58:41.872Z,27.47
2023-05-23T13:01:09.113Z,27.45
2023-05-23T13:03:36.600Z,27.58
2023-05-23T13:06:03.271Z,27.69
2023-05-23T13:08:29.853Z,27.69
2023-05-23T13:10:57.181Z,27.30
2023-05-23T13:13:23.910Z,27.63
2023-05-23T13:15:51.646Z,28.00
2023-05-23T13:18:18.688Z,27.99
2023-05-23T13:20:46.284Z,28.11
2023-05-23T13:23:12.966Z,27.96
2023-05-23T13:25:39.693Z,27.85
2023-05-23T13:28:06.620Z,27.69
2023-05-23T13:30:33.588Z,27.55
2023-05-23T13:33:00.445Z,27.60
2023-05-23T13:35:27.079Z,27.39
2023-05-23T13:37:53.717Z,27.52
2023-05-23T13:40:21.619Z,27.71
2023-05-23T13:42:51.042Z,27.67
2023-05-23T13:45:18.423Z,27.98
2023-05-23T13:47:46.281Z,28.22
2023-05-23T13:50:12.911Z,28.45
2023-05-23T13:52:42.167Z,28.45
2023-05-23T13:55:11.054Z,28.22
2023-05-23T13:57:37.708Z,27.87
2023-05-23T14:00:05.313Z,27.90
2023-05-23T14:02:32.141Z,28.03
2023-05-23T14:04:58.937Z,28.13
2023-05-23T14:07:25.621Z,27.79
2023-05-23T14:09:52.257Z,28.06
2023-05-23T14:12:25.044Z,28.01
